createdAt,value
2018-08-17T04:10:38.649Z,99630.41
2018-08-17T04:13:09.261Z,99625.71
2018-08-17T04:15:39.968Z,99625.10
2018-08-17T04:18:10.821Z,99621.94
2018-08-17T04:20:41.636Z,99626.00
2018-08-17T04:23:11.847Z,99623.12
2018-08-17T04:25:42.650Z,99621.44
2018-08-17T04:28:14.137Z,99617.39
2018-08-17T04:30:47.122Z,99618.35
2018-08-17T04:33:17.675Z,99617.88
2018-08-17T04:35:52.406Z,99627.00
2018-08-17T04:38:22.902Z,99611.19
2018-08-17T04:40:59.379Z,99616.78
2018-08-17T04:43:31.228Z,99615.60
2018-08-17T04:46:02.174Z,99607.32
2018-08-17T04:48:33.434Z,99603.32
2018-08-17T04:51:04.214Z,99600.73
2018-08-17T04:53:34.922Z,99597.87
2018-08-17T04:56:05.732Z,99596.27
2018-08-17T04:58:36.327Z,99598.78
2018-08-17T05:01:07.245Z,99602.75
2018-08-17T05:03:37.841Z,99605.14
2018-08-17T05:06:08.478Z,99605.45
2018-08-17T05:08:39.044Z,99612.06
2018-08-17T05:11:09.781Z,99613.42
2018-08-17T05:13:40.590Z,99611.52
2018-08-17T05:16:11.300Z,99616.77
2018-08-17T05:18:41.953Z,99611.95
2018-08-17T05:21:12.368Z,99612.00
2018-08-17T05:23:43.005Z,99613.22
2018-08-17T05:26:14.116Z,99607.31
2018-08-17T05:28:44.790Z,99610.27
2018-08-17T05:31:15.493Z,99612.34
2018-08-17T05:33:46.158Z,99611.03
2018-08-17T05:36:16.845Z,99613.50
2018-08-17T05:38:47.481Z,99609.02
2018-08-17T05:41:18.298Z,99611.11
2018-08-17T05:43:48.920Z,99606.82
2018-08-17T05:46:19.740Z,99607.10
2018-08-17T05:48:50.241Z,99606.69
2018-08-17T05:51:20.906Z,99606.82
2018-08-17T05:53:51.476Z,99608.27
2018-08-17T05:56:22.036Z,99602.83
2018-08-17T05:58:52.528Z,99600.16
2018-08-17T06:01:24.245Z,99601.19
2018-08-17T06:03:54.772Z,99601.81
2018-08-17T06:06:25.526Z,99595.80
2018-08-17T06:08:56.215Z,99603.78
2018-08-17T06:11:26.958Z,99602.58
2018-08-17T06:13:57.526Z,99596.87
2018-08-17T06:16:28.338Z,99594.06
2018-08-17T06:18:58.956Z,99589.73
2018-08-17T06:21:29.638Z,99594.19
2018-08-17T06:24:00.302Z,99589.92
2018-08-17T06:26:30.997Z,99586.16
2018-08-17T06:29:01.665Z,99588.27
2018-08-17T06:31:32.154Z,99584.13
2018-08-17T06:34:02.776Z,99578.16
2018-08-17T06:36:33.704Z,99586.20
2018-08-17T06:39:05.521Z,99578.83
2018-08-17T06:41:36.213Z,99587.52
2018-08-17T06:44:06.933Z,99588.65
2018-08-17T06:46:37.737Z,99585.00
2018-08-17T06:49:08.357Z,99586.08
2018-08-17T06:51:39.098Z,99587.30
2018-08-17T06:54:09.576Z,99585.62
2018-08-17T06:56:40.310Z,99585.71
2018-08-17T06:59:10.930Z,99583.61
2018-08-17T07:01:41.609Z,99591.31
2018-08-17T07:04:12.129Z,99589.67
2018-08-17T07:06:42.861Z,99591.88
2018-08-17T07:09:13.532Z,99593.55
2018-08-17T07:11:44.308Z,99580.58
2018-08-17T07:14:14.846Z,99591.61
2018-08-17T07:16:45.352Z,99580.83
2018-08-17T07:19:15.800Z,99575.84
2018-08-17T07:21:46.509Z,99578.41
2018-08-17T07:24:17.105Z,99570.82
2018-08-17T07:26:47.765Z,99577.33
2018-08-17T07:29:18.320Z,99575.50
2018-08-17T07:31:48.995Z,99576.13
2018-08-17T07:34:19.480Z,99571.00
2018-08-17T07:36:50.121Z,99578.38
2018-08-17T07:39:20.760Z,99578.94
2018-08-17T07:41:51.322Z,99577.16
2018-08-17T07:44:21.777Z,99580.25
2018-08-17T07:46:52.489Z,99568.12
2018-08-17T07:49:23.085Z,99573.69
2018-08-17T07:51:53.896Z,99579.16
2018-08-17T07:54:24.549Z,99577.36
2018-08-17T07:56:55.273Z,99570.56
2018-08-17T07:59:25.934Z,99569.77
2018-08-17T08:01:56.572Z,99573.47
2018-08-17T08:04:27.105Z,99573.00
2018-08-17T08:06:57.782Z,99575.05
2018-08-17T08:09:28.355Z,99571.96
2018-08-17T08:11:58.896Z,99576.16
2018-08-17T08:14:29.597Z,99570.79
2018-08-17T08:17:00.360Z,99569.71
2018-08-17T08:19:30.945Z,99569.53
2018-08-17T08:22:01.659Z,99566.72
2018-08-17T08:24:37.642Z,99558.50
2018-08-17T08:27:09.482Z,99561.28
2018-08-17T08:29:40.253Z,99556.81
2018-08-17T08:32:11.020Z,99561.86
2018-08-17T08:34:41.668Z,99558.64
2018-08-17T08:37:12.277Z,99551.08
2018-08-17T08:39:43.044Z,99550.91
2018-08-17T08:42:13.838Z,99545.98
2018-08-17T08:44:44.590Z,99541.72
2018-08-17T08:47:15.293Z,99538.83
2018-08-17T08:49:46.027Z,99534.31
2018-08-17T08:52:17.025Z,99534.16
2018-08-17T08:54:47.629Z,99531.91
2018-08-17T08:57:18.337Z,99529.93
2018-08-17T08:59:49.376Z,99530.66
2018-08-17T09:02:20.205Z,99528.34
2018-08-17T09:04:50.734Z,99526.95
2018-08-17T09:07:21.425Z,99521.71
2018-08-17T09:09:52.149Z,99517.53
2018-08-17T09:12:22.877Z,99515.30
2018-08-17T09:14:53.603Z,99513.25
2018-08-17T09:17:24.344Z,99514.09
2018-08-17T09:19:54.857Z,99512.79
2018-08-17T09:22:25.607Z,99510.86
2018-08-17T09:24:56.174Z,99509.51
2018-08-17T09:27:27.025Z,99510.50
2018-08-17T09:29:57.697Z,99503.11
2018-08-17T09:32:28.373Z,99503.92
2018-08-17T09:34:59.177Z,99503.52
2018-08-17T09:37:29.905Z,99502.80
2018-08-17T09:40:00.528Z,99494.94
2018-08-17T09:42:31.340Z,99499.13
2018-08-17T09:45:01.931Z,99487.02
2018-08-17T09:47:32.598Z,99485.22
2018-08-17T09:50:03.234Z,99482.83
2018-08-17T09:52:33.872Z,99482.86
2018-08-17T09:55:04.440Z,99480.43
2018-08-17T09:57:35.102Z,99472.56
2018-08-17T10:00:07.086Z,99475.22
2018-08-17T10:02:42.800Z,99470.46
2018-08-17T10:05:18.283Z,99470.05
2018-08-17T10:07:53.981Z,99464.88
2018-08-17T10:10:25.737Z,99465.03
2018-08-17T10:12:56.546Z,99464.96
2018-08-17T10:15:27.342Z,99462.25
2018-08-17T10:17:58.109Z,99459.47
2018-08-17T10:20:28.648Z,99451.17
2018-08-17T10:22:59.453Z,99455.17
2018-08-17T10:25:30.181Z,99444.26
2018-08-17T10:28:01.068Z,99443.84
2018-08-17T10:30:31.596Z,99441.19
2018-08-17T10:33:02.262Z,99432.56
2018-08-17T10:35:34.606Z,99428.93
2018-08-17T10:38:06.422Z,99424.53
2018-08-17T10:40:37.126Z,99422.97
2018-08-17T10:43:08.054Z,99427.80
2018-08-17T10:45:38.460Z,99422.78
2018-08-17T10:48:09.294Z,99423.11
2018-08-17T10:50:39.872Z,99432.27
2018-08-17T10:53:10.693Z,99431.74
2018-08-17T10:55:46.377Z,99440.35
2018-08-17T10:58:18.485Z,99422.31
2018-08-17T11:00:49.088Z,99427.88
2018-08-17T11:03:19.983Z,99430.84
2018-08-17T11:05:50.565Z,99425.81
2018-08-17T11:08:21.385Z,99425.03
2018-08-17T11:10:52.045Z,99419.83
2018-08-17T11:13:22.832Z,99418.75
2018-08-17T11:15:53.638Z,99416.29
2018-08-17T11:18:24.349Z,99412.98
2018-08-17T11:20:56.109Z,99413.26
2018-08-17T11:23:26.663Z,99404.67
2018-08-17T11:25:57.308Z,99404.83
2018-08-17T11:28:28.349Z,99399.63
2018-08-17T11:30:58.851Z,99401.22
2018-08-17T11:33:30.357Z,99395.91
2018-08-17T11:36:01.058Z,99401.95
2018-08-17T11:38:31.846Z,99403.66
2018-08-17T11:41:02.537Z,99401.77
2018-08-17T11:43:33.434Z,99394.66
2018-08-17T11:46:04.018Z,99395.95
2018-08-17T11:48:35.585Z,99393.75
2018-08-17T11:51:06.305Z,99385.16
2018-08-17T11:53:37.182Z,99391.08
2018-08-17T11:56:07.877Z,99390.65
2018-08-17T11:58:38.698Z,99393.02
2018-08-17T12:01:15.318Z,99388.77
2018-08-17T12:03:46.282Z,99392.17
2018-08-17T12:06:16.862Z,99410.34
2018-08-17T12:08:47.529Z,99402.39
2018-08-17T12:11:18.049Z,99397.88
2018-08-17T12:13:48.632Z,99404.59
2018-08-17T12:16:19.302Z,99410.05
2018-08-17T12:18:51.020Z,99424.34
2018-08-17T12:21:21.676Z,99420.50
2018-08-17T12:23:52.426Z,99420.72
2018-08-17T12:26:23.861Z,99414.20
2018-08-17T12:28:54.529Z,99411.34
2018-08-17T12:31:25.193Z,99411.84
2018-08-17T12:33:55.933Z,99413.91
2018-08-17T12:36:26.549Z,99417.13
2018-08-17T12:38:57.181Z,99418.67
2018-08-17T12:41:28.017Z,99424.16
2018-08-17T12:43:59.885Z,99428.06
2018-08-17T12:46:30.485Z,99427.75
2018-08-17T12:49:01.209Z,99426.15
2018-08-17T12:51:31.860Z,99420.41
2018-08-17T12:54:02.943Z,99411.70
2018-08-17T12:56:33.427Z,99424.08
2018-08-17T12:59:04.057Z,99418.27
2018-08-17T13:01:34.621Z,99419.41
2018-08-17T13:04:05.390Z,99429.50
2018-08-17T13:06:35.965Z,99426.79
2018-08-17T13:09:07.903Z,99433.15
2018-08-17T13:11:44.294Z,99427.70
2018-08-17T13:14:14.970Z,99430.96
2018-08-17T13:16:45.714Z,99428.87
2018-08-17T13:19:17.112Z,99427.13
2018-08-17T13:21:47.709Z,99427.48
2018-08-17T13:24:18.533Z,99426.70
2018-08-17T13:26:49.233Z,99427.02
2018-08-17T13:29:20.345Z,99413.08
2018-08-17T13:31:50.941Z,99418.98
2018-08-17T13:34:21.437Z,99416.85
2018-08-17T13:36:52.121Z,99414.47
2018-08-17T13:39:22.851Z,99410.88
2018-08-17T13:41:53.356Z,99412.07
2018-08-17T13:44:24.805Z,99410.03
2018-08-17T13:46:55.457Z,99407.23
2018-08-17T13:49:26.093Z,99401.32
2018-08-17T13:51:56.728Z,99399.13
2018-08-17T13:54:27.358Z,99403.11
2018-08-17T13:56:58.098Z,99400.85
2018-08-17T13:59:29.070Z,99395.23
2018-08-17T14:01:59.698Z,99391.97
2018-08-17T14:04:30.284Z,99381.27
2018-08-17T14:07:00.935Z,99383.89
2018-08-17T14:09:32.450Z,99386.80
2018-08-17T14:12:03.164Z,99385.64
2018-08-17T14:14:35.292Z,99385.81
2018-08-17T14:17:06.382Z,99384.44
2018-08-17T14:19:37.190Z,99385.95
2018-08-17T14:22:08.049Z,99378.66
2018-08-17T14:24:38.809Z,99379.30
2018-08-17T14:27:09.458Z,99381.34
2018-08-17T14:29:40.295Z,99384.25
2018-08-17T14:32:10.829Z,99376.20
2018-08-17T14:34:41.489Z,99380.56
2018-08-17T14:37:12.064Z,99378.47
2018-08-17T14:39:42.878Z,99377.66
2018-08-17T14:42:13.480Z,99360.64
2018-08-17T14:44:44.316Z,99366.50
2018-08-17T14:47:15.189Z,99366.69
2018-08-17T14:49:45.973Z,99368.19
2018-08-17T14:52:16.632Z,99371.54
2018-08-17T14:54:47.377Z,99367.84
2018-08-17T14:57:17.886Z,99362.61
2018-08-17T14:59:48.792Z,99360.73
2018-08-17T15:02:19.301Z,99359.07
2018-08-17T15:04:50.833Z,99352.14
2018-08-17T15:07:21.448Z,99355.45
2018-08-17T15:09:52.242Z,99356.30
2018-08-17T15:12:22.737Z,99358.91
2018-08-17T15:14:54.384Z,99363.99
2018-08-17T15:17:24.840Z,99356.83
2018-08-17T15:19:56.637Z,99361.25
2018-08-17T15:22:27.331Z,99362.84
2018-08-17T15:24:58.660Z,99357.46
2018-08-17T15:27:29.456Z,99364.61
2018-08-17T15:30:00.264Z,99372.08
2018-08-17T15:32:30.996Z,99380.84
2018-08-17T15:35:02.541Z,99380.67
2018-08-17T15:37:35.405Z,99384.41
2018-08-17T15:40:06.961Z,99388.11
2018-08-17T15:42:37.625Z,99384.95
2018-08-17T15:45:09.129Z,99388.95
2018-08-17T15:47:39.819Z,99388.05
2018-08-17T15:50:21.526Z,99390.30
2018-08-17T15:52:52.386Z,99396.70
2018-08-17T15:55:23.182Z,99399.78
2018-08-17T15:57:53.872Z,99398.79
2018-08-17T16:00:26.032Z,99393.25
2018-08-17T16:02:56.712Z,99394.78
2018-08-17T16:05:27.442Z,99395.61
2018-08-17T16:07:58.145Z,99394.91
2018-08-17T16:10:29.065Z,99401.97
2018-08-17T16:12:59.660Z,99401.55
2018-08-17T16:15:30.441Z,99406.20
2018-08-17T16:18:01.234Z,99408.57
2018-08-17T16:20:31.813Z,99411.66
2018-08-17T16:23:02.436Z,99422.78
2018-08-17T16:25:33.030Z,99443.33
2018-08-17T16:28:04.013Z,99446.81
2018-08-17T16:30:34.893Z,99462.53
2018-08-17T16:33:05.680Z,99451.41
2018-08-17T16:35:37.337Z,99456.71
2018-08-17T16:38:08.288Z,99467.33
2018-08-17T16:40:45.477Z,99471.27
2018-08-17T16:43:17.033Z,99480.91
2018-08-17T16:45:49.066Z,99488.03
2018-08-17T16:48:20.917Z,99488.42
2018-08-17T16:53:03.940Z,99493.14
2018-08-17T16:55:34.510Z,99489.64
2018-08-17T16:58:05.250Z,99494.30
2018-08-17T17:00:36.014Z,99492.59
2018-08-17T17:03:06.906Z,99492.23
2018-08-17T17:05:37.549Z,99494.81
2018-08-17T17:08:08.473Z,99496.34
2018-08-17T17:10:39.061Z,99490.86
2018-08-17T17:13:10.354Z,99495.20
2018-08-17T17:15:40.856Z,99493.75
2018-08-17T17:18:11.674Z,99484.88
2018-08-17T17:20:42.246Z,99481.17
2018-08-17T17:23:14.197Z,99473.25
2018-08-17T17:25:44.801Z,99477.16
2018-08-17T17:28:15.368Z,99475.55
2018-08-17T17:30:51.231Z,99479.23
2018-08-17T17:33:22.684Z,99490.41
2018-08-17T17:35:53.353Z,99491.86
2018-08-17T17:38:23.848Z,99494.77
2018-08-17T17:40:54.569Z,99487.48
2018-08-17T17:43:25.286Z,99487.41
2018-08-17T17:45:57.041Z,99493.94
2018-08-17T17:48:27.678Z,99489.98
2018-08-17T17:50:58.100Z,99495.81
2018-08-17T17:53:28.747Z,99506.23
2018-08-17T17:55:59.602Z,99512.71
2018-08-17T17:58:30.311Z,99529.73
2018-08-17T18:01:06.170Z,99535.01
2018-08-17T18:03:37.014Z,99539.02
2018-08-17T18:06:09.338Z,99549.09
2018-08-17T18:08:39.957Z,99552.06
2018-08-17T18:11:10.701Z,99554.95
2018-08-17T18:13:41.317Z,99571.20
2018-08-17T18:16:11.977Z,99577.94
2018-08-17T18:18:42.645Z,99578.84
2018-08-17T18:21:14.166Z,99572.63
2018-08-17T18:23:44.876Z,99578.70
2018-08-17T18:26:20.049Z,99573.70
2018-08-17T18:28:50.636Z,99575.51
2018-08-17T18:31:21.508Z,99579.67
2018-08-17T18:33:52.022Z,99582.32
2018-08-17T18:36:23.405Z,99579.38
2018-08-17T18:38:54.073Z,99578.05
2018-08-17T18:41:24.917Z,99581.06
2018-08-17T18:43:55.544Z,99582.08
2018-08-17T18:46:26.361Z,99583.61
2018-08-17T18:48:57.086Z,99577.14
2018-08-17T18:51:29.020Z,99580.45
2018-08-17T18:53:59.712Z,99583.34
2018-08-17T18:56:31.289Z,99580.72
2018-08-17T18:59:02.021Z,99582.66
2018-08-17T19:01:33.935Z,99576.53
2018-08-17T19:04:04.693Z,99580.17
2018-08-17T19:06:35.437Z,99581.91
2018-08-17T19:09:08.232Z,99582.73
2018-08-17T19:11:39.128Z,99584.10
2018-08-17T19:14:09.838Z,99588.03
2018-08-17T19:16:40.721Z,99589.36
2018-08-17T19:19:11.244Z,99586.61
2018-08-17T19:21:42.673Z,99590.02
2018-08-17T19:24:13.713Z,99588.70
2018-08-17T19:26:44.353Z,99584.70
2018-08-17T19:29:15.057Z,99585.32
2018-08-17T19:31:50.957Z,99586.54
2018-08-17T19:34:21.696Z,99590.06
2018-08-17T19:36:52.573Z,99593.38
2018-08-17T19:39:27.102Z,99596.73
2018-08-17T19:41:57.680Z,99599.20
2018-08-17T19:44:28.304Z,99605.17
2018-08-17T19:46:59.744Z,99603.18
2018-08-17T19:49:30.545Z,99598.00
2018-08-17T19:52:01.288Z,99590.05
2018-08-17T19:54:31.759Z,99584.50
2018-08-17T19:57:04.084Z,99573.19
2018-08-17T19:59:34.812Z,99572.16
2018-08-17T20:02:05.609Z,99577.52
2018-08-17T20:04:36.145Z,99580.57
2018-08-17T20:07:09.322Z,99582.33
2018-08-17T20:09:40.614Z,99591.48
2018-08-17T20:12:11.986Z,99586.03
2018-08-17T20:14:42.440Z,99586.65
2018-08-17T20:17:14.589Z,99576.91
2018-08-17T20:19:48.963Z,99580.10
2018-08-17T20:22:24.298Z,99580.72
2018-08-17T20:24:55.006Z,99577.13
2018-08-17T20:27:26.216Z,99581.67
2018-08-17T20:30:05.877Z,99586.58
2018-08-17T20:32:36.713Z,99575.76
2018-08-17T20:35:07.609Z,99578.59
2018-08-17T20:37:46.802Z,99588.19
2018-08-17T20:40:18.193Z,99588.45
2018-08-17T20:42:49.388Z,99595.09
2018-08-17T20:45:23.313Z,99597.14
2018-08-17T20:47:54.022Z,99594.73
2018-08-17T20:50:24.572Z,99593.81
2018-08-17T20:52:59.137Z,99590.63
2018-08-17T20:55:29.817Z,99587.56
2018-08-17T20:58:00.617Z,99588.43
2018-08-17T21:00:31.411Z,99583.02
2018-08-17T21:03:02.804Z,99581.71
2018-08-17T21:05:33.437Z,99584.19
2018-08-17T21:08:04.242Z,99577.69
2018-08-17T21:10:34.816Z,99572.87
2018-08-17T21:13:06.312Z,99571.70
2018-08-17T21:15:36.969Z,99578.20
2018-08-17T21:18:07.773Z,99577.57
2018-08-17T21:20:38.384Z,99582.30
2018-08-17T21:23:09.328Z,99583.80
2018-08-17T21:25:40.009Z,99588.81
2018-08-17T21:28:10.721Z,99579.39
2018-08-17T21:30:41.298Z,99582.17
2018-08-17T21:33:11.982Z,99581.73
2018-08-17T21:35:42.653Z,99580.89
2018-08-17T21:38:14.253Z,99576.05
2018-08-17T21:40:44.769Z,99581.63
2018-08-17T21:43:16.628Z,99577.02
2018-08-17T21:45:49.109Z,99574.56
2018-08-17T21:48:25.792Z,99571.40
2018-08-17T21:50:56.380Z,99575.03
2018-08-17T21:53:27.180Z,99566.66
2018-08-17T21:55:57.568Z,99566.90
2018-08-17T21:58:28.392Z,99567.89
2018-08-17T22:00:59.155Z,99576.36
2018-08-17T22:03:36.353Z,99572.21
2018-08-17T22:06:07.108Z,99572.19
2018-08-17T22:08:38.501Z,99577.56
2018-08-17T22:11:09.360Z,99573.50
2018-08-17T22:13:40.019Z,99575.92
2018-08-17T22:16:10.548Z,99579.28
2018-08-17T22:18:41.298Z,99574.78
2018-08-17T22:21:11.946Z,99570.55
2018-08-17T22:23:45.132Z,99569.75
2018-08-17T22:26:18.516Z,99578.34
2018-08-17T22:28:49.290Z,99581.14
2018-08-17T22:31:35.801Z,99585.48
2018-08-17T22:34:07.121Z,99579.72
2018-08-17T22:36:37.776Z,99575.86
2018-08-17T22:39:09.889Z,99585.42
2018-08-17T22:41:40.700Z,99587.69
2018-08-17T22:44:17.049Z,99592.75
2018-08-17T22:47:03.789Z,99595.17
2018-08-17T22:49:35.571Z,99599.54
2018-08-17T22:52:06.443Z,99597.34
2018-08-17T22:54:46.912Z,99597.14
2018-08-17T22:57:17.921Z,99594.86
2018-08-17T22:59:53.766Z,99587.05
2018-08-17T23:02:24.378Z,99585.49
2018-08-17T23:04:56.457Z,99589.94
2018-08-17T23:07:27.095Z,99591.39
2018-08-17T23:09:57.804Z,99594.22
2018-08-17T23:12:28.352Z,99595.38
2018-08-17T23:15:00.392Z,99592.16
2018-08-17T23:17:30.877Z,99593.35
2018-08-17T23:20:01.676Z,99596.41
2018-08-17T23:22:32.367Z,99598.99
2018-08-17T23:25:03.096Z,99597.56
2018-08-17T23:27:33.835Z,99599.14
2018-08-17T23:30:04.644Z,99599.48
2018-08-17T23:32:35.173Z,99590.77
2018-08-17T23:35:06.085Z,99590.60
2018-08-17T23:37:36.764Z,99599.39
2018-08-17T23:40:09.180Z,99607.95
2018-08-17T23:42:39.948Z,99605.25
2018-08-17T23:45:13.863Z,99593.59
2018-08-17T23:47:44.544Z,99607.96
2018-08-17T23:50:16.016Z,99620.57
2018-08-17T23:52:46.648Z,99596.26
2018-08-17T23:55:18.537Z,99589.04
2018-08-17T23:57:49.150Z,99586.41
